Terminal Aerodrome Forecast
Issued by NWS Greer, SC

Home | Current Version | Previous Version | Text Only | Print | Product List | Glossary On
Versions: 1 2 3 4 5 6 7 8 9 10 11 12 13 14
000
FTUS42 KGSP 221125
TAFAVL
TAF
KAVL 221125Z 2212/2312 00000KT P6SM SCT250
      TEMPO 2212/2213 3SM BR SCT006
     FM221300 VRB03KT P6SM SCT015
     FM221500 VRB03KT P6SM SCT045
     FM221900 21005KT P6SM BKN050 PROB30 2221/2224 4SM -TSRA
      OVC025CB
     FM230700 29003KT 5SM BR SCT200=

USA.gov is the U.S. government's official web portal to all federal, state and local government web resources and services.